Time;durP1;ratioP1;P1;durP2;ratioP2;P2;SDS_P1;SDS_P2;PMS_P1;PMS_P2;Temp;Humidity;BMP_temperature;BMP_pressure;BME280_temperature;BME280_humidity;BME280_pressure;Samples;Min_cycle;Max_cycle;Signal;HPM_P1;HPM_P2
2023/10/14 00:01:34;;;;;;;5.47;3.33;;;26.10;32.40;;;;;;4904686;29;20450;-46
2023/10/14 00:04:04;;;;;;;4.70;3.40;;;25.80;33.00;;;;;;4908778;29;20432;-46
2023/10/14 00:06:32;;;;;;;4.93;3.50;;;26.00;33.10;;;;;;4901895;29;20938;-46
2023/10/14 00:08:57;;;;;;;3.60;3.30;;;26.00;33.20;;;;;;4908253;29;20851;-46
2023/10/14 00:11:26;;;;;;;5.10;3.67;;;26.10;33.60;;;;;;4910042;29;20460;-46
2023/10/14 00:13:52;;;;;;;5.60;3.73;;;26.00;34.20;;;;;;4907499;29;20970;-47
2023/10/14 00:18:58;;;;;;;14.93;3.80;;;26.00;34.60;;;;;;4904424;29;20224;-48
2023/10/14 00:21:27;;;;;;;5.80;3.53;;;26.00;34.70;;;;;;4906551;29;20445;-48
2023/10/14 00:23:57;;;;;;;5.10;3.50;;;25.90;34.80;;;;;;4907618;29;21030;-46
2023/10/14 00:26:27;;;;;;;6.17;3.47;;;26.00;34.80;;;;;;4909717;29;20498;-46
2023/10/14 00:29:29;;;;;;;4.10;3.50;;;26.30;34.40;;;;;;4908788;29;20477;-46
2023/10/14 00:31:49;;;;;;;4.80;3.73;;;26.30;34.30;;;;;;4906457;29;20508;-47
2023/10/14 00:34:15;;;;;;;4.57;3.73;;;26.10;34.80;;;;;;4903224;29;21059;-48
2023/10/14 00:36:42;;;;;;;7.40;4.30;;;26.00;35.50;;;;;;4907639;29;21193;-48
2023/10/14 00:39:27;;;;;;;7.37;4.10;;;25.80;36.90;;;;;;4907285;29;20538;-46
2023/10/14 00:41:53;;;;;;;4.97;4.57;;;25.90;37.00;;;;;;4909813;29;21176;-48
2023/10/14 00:44:20;;;;;;;7.10;3.90;;;25.70;37.90;;;;;;4915245;29;20481;-46
2023/10/14 00:46:48;;;;;;;4.83;4.43;;;25.70;39.10;;;;;;4911624;29;20448;-46
2023/10/14 00:49:21;;;;;;;6.77;4.90;;;25.80;39.80;;;;;;4911687;29;20466;-46
2023/10/14 00:51:49;;;;;;;4.30;3.80;;;25.80;39.70;;;;;;4917634;29;20508;-48
2023/10/14 00:59:50;;;;;;;5.87;5.27;;;26.00;39.50;;;;;;4918273;29;20484;-50
2023/10/14 01:02:29;;;;;;;5.90;4.33;;;25.90;39.70;;;;;;4915775;29;20489;-47
2023/10/14 01:04:55;;;;;;;4.60;3.97;;;25.90;39.40;;;;;;4914337;29;20504;-48
2023/10/14 01:07:21;;;;;;;5.77;4.73;;;25.70;39.40;;;;;;4911206;29;20453;-46
2023/10/14 01:12:16;;;;;;;5.40;4.90;;;25.50;41.80;;;;;;4910192;29;20525;-51
2023/10/14 01:14:52;;;;;;;5.40;4.90;;;25.30;43.20;;;;;;4908527;29;20905;-46
2023/10/14 01:19:50;;;;;;;6.90;5.50;;;25.30;44.70;;;;;;4908412;29;20884;-47
2023/10/14 01:22:16;;;;;;;6.70;6.10;;;25.30;45.60;;;;;;4906742;29;20445;-46
2023/10/14 01:24:42;;;;;;;6.50;5.90;;;25.10;46.80;;;;;;4908742;29;20197;-48
2023/10/14 01:27:09;;;;;;;6.90;5.27;;;25.00;47.50;;;;;;4909355;29;20329;-48
2023/10/14 01:29:40;;;;;;;7.00;6.30;;;25.10;47.80;;;;;;4909101;29;20245;-48
2023/10/14 01:32:25;;;;;;;8.23;6.57;;;25.00;48.40;;;;;;4906228;29;20508;-48
2023/10/14 01:34:59;;;;;;;9.20;5.73;;;24.90;48.80;;;;;;4912483;29;20445;-49
2023/10/14 01:37:27;;;;;;;8.13;6.40;;;24.70;49.20;;;;;;4902655;29;20446;-47
2023/10/14 01:39:57;;;;;;;11.83;5.63;;;24.50;49.70;;;;;;4910397;29;20911;-47
2023/10/14 01:42:23;;;;;;;6.20;5.47;;;24.40;50.30;;;;;;4900292;29;20902;-47
2023/10/14 01:44:53;;;;;;;9.83;6.20;;;24.20;50.70;;;;;;4911939;29;20468;-46
2023/10/14 01:47:20;;;;;;;8.13;6.40;;;24.20;51.10;;;;;;4911857;29;20446;-49
2023/10/14 01:49:46;;;;;;;7.13;5.70;;;24.20;51.10;;;;;;4906128;29;20489;-50
2023/10/14 01:52:15;;;;;;;6.70;6.00;;;24.30;50.80;;;;;;4905487;29;20517;-48
2023/10/14 01:54:41;;;;;;;7.70;6.20;;;24.40;50.90;;;;;;4908467;29;20190;-46
2023/10/14 01:57:12;;;;;;;5.93;5.43;;;24.50;50.60;;;;;;4903151;29;20529;-47
2023/10/14 01:59:40;;;;;;;8.23;5.80;;;24.50;50.80;;;;;;4908978;29;20312;-49
2023/10/14 02:02:09;;;;;;;17.87;7.00;;;24.70;50.70;;;;;;4906786;29;20500;-48
2023/10/14 02:04:36;;;;;;;6.50;5.90;;;24.50;50.80;;;;;;4907751;29;21044;-46
2023/10/14 02:07:19;;;;;;;6.97;5.93;;;24.30;51.40;;;;;;4906276;29;20818;-47
2023/10/14 02:09:45;;;;;;;10.80;6.33;;;24.50;52.00;;;;;;4902060;29;20465;-48
2023/10/14 02:12:14;;;;;;;6.60;5.40;;;24.30;51.50;;;;;;4901037;29;20827;-45
2023/10/14 02:14:44;;;;;;;6.50;5.90;;;24.10;51.70;;;;;;4902639;29;20190;-48
2023/10/14 02:17:10;;;;;;;7.87;5.90;;;24.10;51.80;;;;;;4906265;29;20875;-50
2023/10/14 02:22:01;;;;;;;6.77;5.30;;;24.00;52.50;;;;;;4902507;29;20860;-46
2023/10/14 02:24:30;;;;;;;8.40;6.00;;;23.90;52.50;;;;;;4904866;29;20657;-48
2023/10/14 02:27:12;;;;;;;6.60;6.00;;;23.90;52.60;;;;;;4904191;29;20196;-47
2023/10/14 02:29:47;;;;;;;7.60;6.33;;;23.80;53.20;;;;;;4911338;29;20611;-48
2023/10/14 02:32:13;;;;;;;7.40;5.60;;;23.90;52.90;;;;;;4899466;29;20456;-47
2023/10/14 02:34:39;;;;;;;6.07;5.47;;;23.90;52.70;;;;;;4897812;29;20627;-48
2023/10/14 02:37:07;;;;;;;12.70;7.53;;;23.80;52.80;;;;;;4908333;29;20448;-46
2023/10/14 02:39:33;;;;;;;6.33;5.73;;;24.00;52.80;;;;;;4905951;29;20476;-48
2023/10/14 02:41:59;;;;;;;9.70;6.10;;;23.90;52.60;;;;;;4909187;29;20441;-47
2023/10/14 02:44:31;;;;;;;7.40;6.60;;;23.90;52.60;;;;;;4919187;29;20217;-46
2023/10/14 02:47:08;;;;;;;6.67;5.80;;;23.80;52.90;;;;;;4917930;29;20302;-46
2023/10/14 02:49:39;;;;;;;7.77;6.00;;;23.80;53.00;;;;;;4906245;29;20551;-47
2023/10/14 02:52:18;;;;;;;13.43;6.70;;;23.90;52.90;;;;;;4920509;29;20425;-46
2023/10/14 02:54:45;;;;;;;8.57;6.27;;;23.90;52.70;;;;;;4921359;29;20461;-46
2023/10/14 02:57:23;;;;;;;8.47;5.97;;;23.60;53.20;;;;;;4914803;29;20969;-48
2023/10/14 02:59:50;;;;;;;7.17;5.30;;;23.60;53.40;;;;;;4912720;29;20512;-47
2023/10/14 03:02:48;;;;;;;7.20;5.77;;;23.70;53.10;;;;;;4908222;29;20453;-48
2023/10/14 03:05:32;;;;;;;7.27;6.17;;;23.90;53.00;;;;;;4911214;29;20982;-46
2023/10/14 03:08:09;;;;;;;6.43;5.70;;;24.00;52.80;;;;;;4911924;29;20576;-48
2023/10/14 03:10:39;;;;;;;6.80;5.77;;;24.00;52.60;;;;;;4915527;29;20528;-49
2023/10/14 03:13:14;;;;;;;9.47;6.20;;;24.00;52.60;;;;;;4914136;29;20979;-49
2023/10/14 03:15:44;;;;;;;8.00;6.53;;;24.00;52.40;;;;;;4910568;29;20451;-48
2023/10/14 03:18:17;;;;;;;7.80;5.90;;;23.80;52.70;;;;;;4907782;29;20489;-51
2023/10/14 03:20:58;;;;;;;6.57;5.93;;;23.60;53.00;;;;;;4906756;29;20506;-50
2023/10/14 03:23:24;;;;;;;7.60;5.93;;;23.70;53.20;;;;;;4911736;29;20508;-49
2023/10/14 03:25:51;;;;;;;6.20;5.60;;;23.70;53.00;;;;;;4909358;29;20821;-48
2023/10/14 03:28:21;;;;;;;11.67;6.40;;;23.90;52.90;;;;;;4908754;29;20973;-49
2023/10/14 03:30:55;;;;;;;6.60;5.90;;;23.90;52.60;;;;;;4912174;29;20482;-49
2023/10/14 03:33:21;;;;;;;6.93;6.23;;;23.80;52.40;;;;;;4905456;29;20612;-48
2023/10/14 03:36:03;;;;;;;9.00;6.80;;;23.90;52.60;;;;;;4904616;29;20461;-47
2023/10/14 03:41:10;;;;;;;8.67;6.03;;;24.00;52.40;;;;;;4906538;29;20459;-46
2023/10/14 03:46:23;;;;;;;8.13;6.40;;;23.70;52.50;;;;;;4909519;29;20481;-47
2023/10/14 03:48:48;;;;;;;8.30;6.37;;;23.70;52.80;;;;;;4911096;29;20540;-49
2023/10/14 03:51:24;;;;;;;9.30;6.10;;;23.60;52.90;;;;;;4907465;29;20521;-47
2023/10/14 03:53:52;;;;;;;7.17;5.80;;;23.70;52.90;;;;;;4914165;29;20480;-48
2023/10/14 03:56:21;;;;;;;7.33;5.97;;;23.90;52.70;;;;;;4907778;29;20449;-48
2023/10/14 03:58:55;;;;;;;8.13;6.03;;;24.10;52.40;;;;;;4906492;29;20564;-48
2023/10/14 04:01:23;;;;;;;6.60;6.00;;;24.20;52.10;;;;;;4909488;29;20849;-51
2023/10/14 04:03:52;;;;;;;6.40;5.80;;;24.40;51.80;;;;;;4906152;29;20486;-46
2023/10/14 04:06:19;;;;;;;6.57;5.87;;;24.30;51.90;;;;;;4906168;29;20544;-48
2023/10/14 04:08:47;;;;;;;7.30;6.10;;;24.40;51.90;;;;;;4914733;29;20461;-48
2023/10/14 04:11:25;;;;;;;7.37;6.20;;;24.60;51.60;;;;;;4906026;29;20441;-46
2023/10/14 04:14:04;;;;;;;8.90;6.47;;;24.40;51.70;;;;;;4907861;29;20473;-47
2023/10/14 04:19:27;;;;;;;7.80;6.37;;;24.10;52.60;;;;;;4915457;29;20485;-46
2023/10/14 04:21:54;;;;;;;7.30;6.70;;;24.10;52.40;;;;;;4909851;29;20449;-46
2023/10/14 04:24:27;;;;;;;6.93;6.23;;;24.00;53.00;;;;;;4905628;29;20883;-48
2023/10/14 04:27:11;;;;;;;7.50;6.37;;;24.00;53.10;;;;;;4897903;29;20442;-48
2023/10/14 04:29:37;;;;;;;7.10;5.57;;;23.90;53.30;;;;;;4905767;29;20457;-46
2023/10/14 04:32:14;;;;;;;11.33;6.23;;;23.90;53.30;;;;;;4911028;29;20437;-46
2023/10/14 04:34:46;;;;;;;8.40;5.90;;;23.80;53.50;;;;;;4909253;29;20296;-47
2023/10/14 04:37:19;;;;;;;9.30;6.87;;;23.90;53.60;;;;;;4907067;29;20454;-49
2023/10/14 04:39:45;;;;;;;6.37;4.80;;;24.10;53.40;;;;;;4904865;29;20473;-48
2023/10/14 04:44:54;;;;;;;5.50;4.43;;;24.00;56.90;;;;;;4911742;29;20687;-47
2023/10/14 04:47:38;;;;;;;4.93;4.30;;;24.10;58.00;;;;;;4904126;29;20534;-47
2023/10/14 04:50:14;;;;;;;5.13;4.63;;;23.90;59.20;;;;;;4914563;29;20441;-50
2023/10/14 04:52:48;;;;;;;6.87;4.20;;;23.20;62.50;;;;;;4917280;29;20532;-48
2023/10/14 05:00:41;;;;;;;7.60;5.17;;;22.90;65.50;;;;;;4915511;29;20435;-50
2023/10/14 05:03:06;;;;;;;10.03;5.00;;;23.00;65.80;;;;;;4911347;29;20444;-48
2023/10/14 05:05:33;;;;;;;6.60;5.17;;;23.10;65.30;;;;;;4912580;29;20453;-48
2023/10/14 05:07:59;;;;;;;9.00;4.50;;;23.10;65.00;;;;;;4913293;29;20212;-47
2023/10/14 05:10:28;;;;;;;5.57;4.97;;;23.10;65.00;;;;;;4913724;29;20504;-49
2023/10/14 05:12:54;;;;;;;5.50;4.17;;;23.10;65.10;;;;;;4912357;29;20500;-47
2023/10/14 05:15:20;;;;;;;5.10;4.60;;;23.20;64.70;;;;;;4909725;29;20799;-48
2023/10/14 05:17:50;;;;;;;7.53;4.90;;;23.30;64.40;;;;;;4907629;29;20824;-47
2023/10/14 05:20:19;;;;;;;6.40;5.20;;;23.50;64.00;;;;;;4906109;29;20453;-46
2023/10/14 05:22:47;;;;;;;5.30;4.80;;;23.60;63.40;;;;;;4909008;29;20455;-49
2023/10/14 05:25:16;;;;;;;5.63;4.03;;;23.70;63.20;;;;;;4905060;29;20426;-49
2023/10/14 05:27:55;;;;;;;4.73;4.20;;;23.70;62.80;;;;;;4903619;29;20521;-47
2023/10/14 05:30:21;;;;;;;5.27;4.10;;;23.80;62.50;;;;;;4907969;29;20457;-48
2023/10/14 05:32:48;;;;;;;5.00;3.80;;;23.90;62.40;;;;;;4904299;29;20563;-46
2023/10/14 05:35:14;;;;;;;5.40;4.37;;;23.90;61.90;;;;;;4907467;29;20464;-48
2023/10/14 05:37:41;;;;;;;4.87;4.43;;;24.00;62.00;;;;;;4905403;29;20449;-46
2023/10/14 05:40:13;;;;;;;8.27;4.13;;;23.90;61.90;;;;;;4899975;29;20472;-51
2023/10/14 05:42:43;;;;;;;5.43;4.30;;;23.80;62.00;;;;;;4911211;29;20465;-46
2023/10/14 05:45:11;;;;;;;7.33;4.73;;;23.60;62.30;;;;;;4915760;29;20499;-48
2023/10/14 05:47:37;;;;;;;7.37;4.70;;;23.60;62.20;;;;;;4908801;29;20452;-49
2023/10/14 05:50:07;;;;;;;4.73;4.13;;;23.50;62.20;;;;;;4912020;29;20426;-45
2023/10/14 05:52:32;;;;;;;5.80;5.30;;;23.50;62.10;;;;;;4910792;28;20440;-47
2023/10/14 05:55:01;;;;;;;8.20;4.73;;;23.60;61.90;;;;;;4915984;29;20460;-49
2023/10/14 05:57:29;;;;;;;5.77;4.80;;;23.50;61.50;;;;;;4915164;29;20194;-49
2023/10/14 05:59:58;;;;;;;6.23;5.37;;;23.30;61.40;;;;;;4916155;29;20495;-47
2023/10/14 06:02:25;;;;;;;5.23;4.73;;;23.30;61.40;;;;;;4915961;29;20480;-49
2023/10/14 06:04:51;;;;;;;5.97;4.63;;;23.30;61.50;;;;;;4916121;29;20445;-48
2023/10/14 06:07:18;;;;;;;5.60;4.70;;;23.40;61.30;;;;;;4912399;29;20856;-49
2023/10/14 06:09:45;;;;;;;5.30;4.53;;;23.40;60.80;;;;;;4912056;29;20221;-46
2023/10/14 06:12:16;;;;;;;6.73;5.00;;;23.50;60.50;;;;;;4914351;29;20461;-49
2023/10/14 06:14:43;;;;;;;5.03;4.63;;;23.60;60.30;;;;;;4915347;29;20446;-46
2023/10/14 06:17:09;;;;;;;6.30;4.73;;;23.60;59.90;;;;;;4913659;29;20465;-49
2023/10/14 06:19:36;;;;;;;5.53;5.03;;;23.60;59.60;;;;;;4914660;29;20512;-50
2023/10/14 06:22:03;;;;;;;6.57;4.23;;;23.60;59.40;;;;;;4918265;29;20531;-47
2023/10/14 06:24:29;;;;;;;8.57;5.47;;;23.60;59.10;;;;;;4916896;29;20838;-48
2023/10/14 06:27:07;;;;;;;5.00;4.47;;;23.70;58.90;;;;;;4907459;29;20460;-49
2023/10/14 06:29:33;;;;;;;6.00;4.57;;;23.50;58.30;;;;;;4912556;29;20864;-46
2023/10/14 06:32:01;;;;;;;6.33;4.63;;;23.50;58.70;;;;;;4914167;29;20453;-48
2023/10/14 06:34:27;;;;;;;6.50;4.90;;;23.30;58.40;;;;;;4918124;29;20479;-46
2023/10/14 06:36:53;;;;;;;5.90;4.10;;;23.30;58.50;;;;;;4917042;29;20467;-49
2023/10/14 06:39:26;;;;;;;9.23;4.80;;;23.40;58.50;;;;;;4908408;29;20856;-47
2023/10/14 06:41:52;;;;;;;5.20;4.40;;;23.50;58.70;;;;;;4911053;29;20527;-47
2023/10/14 06:44:26;;;;;;;5.30;4.53;;;23.40;58.30;;;;;;4914717;29;21050;-52
2023/10/14 06:46:56;;;;;;;6.33;4.60;;;23.30;58.50;;;;;;4914607;29;20421;-46
2023/10/14 06:49:32;;;;;;;8.50;4.67;;;23.30;58.40;;;;;;4912825;29;20583;-48
2023/10/14 06:51:58;;;;;;;8.73;4.77;;;23.20;58.80;;;;;;4912888;29;20433;-48
2023/10/14 06:54:30;;;;;;;5.13;4.40;;;23.20;58.80;;;;;;4915274;29;20568;-48
2023/10/14 06:56:56;;;;;;;6.27;4.47;;;23.00;58.90;;;;;;4914938;29;20488;-47
2023/10/14 06:59:21;;;;;;;6.20;4.00;;;23.10;58.90;;;;;;4916544;29;20469;-49
2023/10/14 07:01:47;;;;;;;4.63;3.63;;;23.20;59.00;;;;;;4915230;29;20186;-48
2023/10/14 07:04:13;;;;;;;8.60;4.00;;;23.30;58.40;;;;;;4915134;29;20197;-49
2023/10/14 07:06:39;;;;;;;8.67;4.27;;;23.20;58.40;;;;;;4914804;29;20205;-49
2023/10/14 07:09:16;;;;;;;6.23;3.47;;;23.30;58.10;;;;;;4917647;29;20213;-48
2023/10/14 07:11:43;;;;;;;4.87;3.70;;;23.30;57.50;;;;;;4915001;29;20476;-45
2023/10/14 07:14:08;;;;;;;5.33;4.10;;;23.30;57.50;;;;;;4914912;29;21016;-48
2023/10/14 07:16:35;;;;;;;6.97;3.73;;;23.30;57.10;;;;;;4915288;29;20477;-49
2023/10/14 07:19:00;;;;;;;5.40;3.20;;;23.30;57.20;;;;;;4914132;29;20268;-48
2023/10/14 07:21:26;;;;;;;7.73;3.60;;;23.40;56.90;;;;;;4914753;29;20461;-48
2023/10/14 07:23:52;;;;;;;6.60;3.90;;;23.60;56.80;;;;;;4913824;29;20193;-49
2023/10/14 07:26:17;;;;;;;8.13;3.10;;;23.70;56.50;;;;;;4914911;29;20273;-50
2023/10/14 07:28:44;;;;;;;5.63;3.50;;;23.80;56.80;;;;;;4914321;29;20217;-48
2023/10/14 07:31:10;;;;;;;4.47;3.43;;;23.70;56.90;;;;;;4914759;29;20201;-49
2023/10/14 07:33:38;;;;;;;4.57;3.17;;;23.80;56.30;;;;;;4914683;29;20568;-50
2023/10/14 07:36:06;;;;;;;4.27;3.07;;;23.90;56.10;;;;;;4914377;29;20467;-50
2023/10/14 07:38:33;;;;;;;7.80;2.90;;;23.60;56.00;;;;;;4914212;29;20861;-51
2023/10/14 07:41:01;;;;;;;5.40;3.17;;;23.50;56.30;;;;;;4914404;29;20986;-47
2023/10/14 07:43:27;;;;;;;4.80;3.10;;;23.70;56.40;;;;;;4914663;29;20437;-49
2023/10/14 07:45:53;;;;;;;4.50;2.57;;;23.70;56.10;;;;;;4913837;29;21050;-48
2023/10/14 07:48:20;;;;;;;4.23;2.30;;;23.50;55.70;;;;;;4913513;29;20520;-50
2023/10/14 07:50:48;;;;;;;3.50;3.03;;;23.40;56.30;;;;;;4913926;29;20189;-48
2023/10/14 07:53:15;;;;;;;2.83;2.07;;;23.50;56.00;;;;;;4914317;29;20503;-49
2023/10/14 07:55:42;;;;;;;7.00;3.50;;;23.60;56.00;;;;;;4913672;29;20430;-46
2023/10/14 07:58:08;;;;;;;3.87;2.27;;;23.80;55.90;;;;;;4913905;29;20475;-49
2023/10/14 08:00:52;;;;;;;5.00;2.50;;;24.00;55.30;;;;;;4914016;29;20483;-51
2023/10/14 08:03:25;;;;;;;4.23;2.60;;;24.20;54.00;;;;;;4917037;29;20441;-47
2023/10/14 08:05:53;;;;;;;4.47;2.30;;;24.00;53.90;;;;;;4914309;29;20429;-48
2023/10/14 08:08:21;;;;;;;3.03;2.67;;;24.20;53.90;;;;;;4906774;29;20465;-49
2023/10/14 08:10:49;;;;;;;3.20;2.40;;;24.20;54.20;;;;;;4913646;29;20464;-47
2023/10/14 08:13:18;;;;;;;3.60;2.60;;;24.30;53.90;;;;;;4915702;29;20492;-51
2023/10/14 08:15:48;;;;;;;3.57;2.33;;;24.50;53.60;;;;;;4913309;29;20488;-49
2023/10/14 08:18:13;;;;;;;9.40;2.63;;;24.40;53.10;;;;;;4913452;29;20463;-50
2023/10/14 08:20:42;;;;;;;4.33;2.20;;;24.50;53.20;;;;;;4913855;29;20956;-50
2023/10/14 08:23:10;;;;;;;2.93;2.13;;;24.60;53.10;;;;;;4913815;29;20196;-50
2023/10/14 08:25:39;;;;;;;4.50;2.40;;;24.70;53.10;;;;;;4913370;29;20429;-49
2023/10/14 08:28:05;;;;;;;4.53;2.70;;;24.80;53.10;;;;;;4913201;29;20453;-51
2023/10/14 08:30:45;;;;;;;8.33;3.10;;;24.60;53.10;;;;;;4913487;29;20444;-47
2023/10/14 08:33:14;;;;;;;3.43;2.50;;;24.50;53.30;;;;;;4913763;29;20476;-48
2023/10/14 08:35:43;;;;;;;2.93;2.30;;;24.60;53.30;;;;;;4912911;29;20429;-49
2023/10/14 08:38:11;;;;;;;2.87;1.90;;;24.50;53.30;;;;;;4912932;29;20468;-46
2023/10/14 08:40:39;;;;;;;2.50;1.97;;;24.30;53.40;;;;;;4912862;29;20441;-49
2023/10/14 08:43:06;;;;;;;3.17;2.20;;;24.40;53.80;;;;;;4913397;29;20437;-46
2023/10/14 08:45:36;;;;;;;2.80;1.80;;;24.30;53.80;;;;;;4913205;29;20436;-45
2023/10/14 08:48:15;;;;;;;2.03;1.80;;;24.20;53.60;;;;;;4912900;29;20473;-45
2023/10/14 08:50:41;;;;;;;4.33;1.90;;;24.10;53.70;;;;;;4915625;29;20467;-47
2023/10/14 08:53:10;;;;;;;6.83;1.90;;;23.60;53.20;;;;;;4910117;29;20488;-49
2023/10/14 08:55:38;;;;;;;2.20;1.70;;;23.30;53.60;;;;;;4913004;29;20445;-48
2023/10/14 08:58:07;;;;;;;2.23;1.67;;;23.40;53.90;;;;;;4912097;29;20985;-47
2023/10/14 09:00:36;;;;;;;2.00;1.80;;;23.50;53.70;;;;;;4912405;29;20441;-46
2023/10/14 09:03:06;;;;;;;3.77;1.50;;;23.30;53.50;;;;;;4911215;29;20465;-48
2023/10/14 09:05:33;;;;;;;2.17;1.40;;;23.30;53.30;;;;;;4912811;29;20453;-48
2023/10/14 09:07:59;;;;;;;4.37;2.00;;;23.50;53.70;;;;;;4912180;29;21019;-48
2023/10/14 09:10:25;;;;;;;2.50;1.50;;;23.50;53.40;;;;;;4912524;29;20453;-49
2023/10/14 09:12:58;;;;;;;2.90;1.70;;;23.40;53.40;;;;;;4913628;29;20473;-47
2023/10/14 09:15:28;;;;;;;5.03;1.70;;;23.40;53.80;;;;;;4904775;29;20513;-46
2023/10/14 09:17:55;;;;;;;1.70;1.43;;;23.60;53.80;;;;;;4911659;29;20477;-46
2023/10/14 09:20:32;;;;;;;1.77;1.67;;;23.80;55.30;;;;;;4912465;29;20976;-46
2023/10/14 09:23:33;;;;;;;1.27;1.17;;;23.50;56.50;;;;;;4910315;29;20877;-48
2023/10/14 09:26:00;;;;;;;0.80;0.80;;;23.30;57.40;;;;;;4911647;29;20515;-48
2023/10/14 09:28:36;;;;;;;1.00;0.90;;;23.00;58.40;;;;;;4917107;29;20469;-45
2023/10/14 09:31:07;;;;;;;1.07;1.07;;;22.60;59.20;;;;;;4907598;29;20436;-47
2023/10/14 09:33:35;;;;;;;1.57;1.00;;;22.50;60.10;;;;;;4908341;29;20473;-46
2023/10/14 09:36:04;;;;;;;1.13;1.03;;;22.40;61.90;;;;;;4909566;29;20516;-49
2023/10/14 09:38:32;;;;;;;2.10;1.00;;;22.20;63.00;;;;;;4944689;28;20993;-48
2023/10/14 09:41:03;;;;;;;1.43;1.17;;;22.10;63.30;;;;;;4911337;29;20451;-49
2023/10/14 09:43:29;;;;;;;1.40;1.10;;;22.10;62.80;;;;;;4914512;29;20440;-49
2023/10/14 09:45:57;;;;;;;1.17;1.10;;;22.10;63.60;;;;;;4909682;29;20475;-48
2023/10/14 09:48:27;;;;;;;1.23;1.10;;;22.10;63.80;;;;;;4918549;29;20559;-49
2023/10/14 09:50:57;;;;;;;1.03;0.93;;;21.90;63.30;;;;;;4916372;29;20429;-48
2023/10/14 09:53:27;;;;;;;1.00;0.90;;;21.60;63.30;;;;;;4910584;29;20471;-52
2023/10/14 09:56:04;;;;;;;2.20;2.00;;;21.60;63.80;;;;;;4916730;29;20945;-49
2023/10/14 09:58:30;;;;;;;2.63;2.00;;;21.70;63.80;;;;;;4912892;29;20874;-50
2023/10/14 10:00:59;;;;;;;5.13;2.00;;;21.80;63.90;;;;;;4915175;29;20474;-47
2023/10/14 10:03:27;;;;;;;11.60;7.80;;;22.00;63.50;;;;;;4913368;29;20445;-50
2023/10/14 10:06:37;;;;;;;16.87;11.87;;;22.10;62.90;;;;;;4915394;29;20457;-46
2023/10/14 10:09:20;;;;;;;9.70;5.43;;;22.20;62.70;;;;;;4913234;29;20473;-48
2023/10/14 10:11:50;;;;;;;11.53;7.97;;;22.50;61.60;;;;;;4910678;29;20549;-49
2023/10/14 10:14:20;;;;;;;38.93;21.03;;;22.80;61.20;;;;;;4917841;29;20479;-49
2023/10/14 10:16:49;;;;;;;17.23;9.20;;;23.00;60.10;;;;;;4914857;29;20524;-49
2023/10/14 10:19:14;;;;;;;23.47;10.17;;;23.20;59.80;;;;;;4915629;29;20500;-50
2023/10/14 10:22:17;;;;;;;11.30;6.67;;;23.50;59.10;;;;;;4914812;29;20481;-50
2023/10/14 10:24:45;;;;;;;9.03;5.53;;;23.80;58.70;;;;;;4918756;29;20263;-49
2023/10/14 10:27:11;;;;;;;3.43;3.13;;;24.00;58.40;;;;;;4915858;29;20449;-47
2023/10/14 10:29:55;;;;;;;4.10;2.40;;;24.20;58.40;;;;;;4915134;29;20448;-46
2023/10/14 10:32:23;;;;;;;2.00;1.20;;;24.30;58.80;;;;;;4915262;29;20424;-49
2023/10/14 10:35:06;;;;;;;2.40;1.67;;;24.20;58.20;;;;;;4917882;29;20485;-51
2023/10/14 10:37:47;;;;;;;1.40;1.30;;;24.00;58.70;;;;;;4908192;29;20449;-52
2023/10/14 10:40:16;;;;;;;1.50;1.40;;;23.50;57.60;;;;;;4912115;29;20479;-47
2023/10/14 10:42:53;;;;;;;2.40;1.20;;;23.10;58.40;;;;;;4914648;29;20469;-49
2023/10/14 10:45:32;;;;;;;1.10;1.10;;;23.00;58.80;;;;;;4914651;29;20601;-50
2023/10/14 10:48:03;;;;;;;1.30;1.20;;;22.90;58.80;;;;;;4912343;29;20892;-48
2023/10/14 10:50:40;;;;;;;1.40;1.30;;;22.90;59.10;;;;;;4915420;29;20569;-48
2023/10/14 10:53:08;;;;;;;2.57;1.37;;;22.90;59.40;;;;;;4915025;29;20468;-51
2023/10/14 10:55:38;;;;;;;3.77;1.23;;;22.90;59.00;;;;;;4914500;29;20433;-50
2023/10/14 10:58:05;;;;;;;2.13;1.93;;;22.90;59.00;;;;;;4913975;29;20477;-48
2023/10/14 11:00:31;;;;;;;3.00;1.30;;;22.90;59.10;;;;;;4914355;29;20765;-50
2023/10/14 11:02:57;;;;;;;1.40;1.10;;;22.90;59.80;;;;;;4915258;29;20652;-51
2023/10/14 11:05:25;;;;;;;1.00;1.00;;;22.80;59.60;;;;;;4914282;29;20496;-51
2023/10/14 11:07:52;;;;;;;1.37;1.27;;;22.60;59.80;;;;;;4913893;29;20442;-49
2023/10/14 11:10:31;;;;;;;1.30;1.20;;;22.60;60.00;;;;;;4914449;29;20469;-52
2023/10/14 11:12:58;;;;;;;1.30;1.20;;;22.30;59.80;;;;;;4911680;29;21082;-48
2023/10/14 11:15:26;;;;;;;1.30;1.20;;;22.30;61.40;;;;;;4914210;29;21483;-51
2023/10/14 11:17:58;;;;;;;1.10;1.00;;;22.20;61.60;;;;;;4913206;29;20952;-48
2023/10/14 11:20:35;;;;;;;2.50;1.57;;;22.20;61.50;;;;;;4914216;29;20569;-50
2023/10/14 11:23:03;;;;;;;1.60;1.30;;;22.40;61.30;;;;;;4911895;29;20532;-49
2023/10/14 11:25:35;;;;;;;2.80;1.70;;;22.40;60.90;;;;;;4914017;29;20592;-50
2023/10/14 11:28:01;;;;;;;1.60;1.50;;;22.50;60.70;;;;;;4911707;29;20452;-51
2023/10/14 11:30:27;;;;;;;1.17;0.97;;;22.50;60.60;;;;;;4913320;29;20446;-50
2023/10/14 11:32:52;;;;;;;1.93;1.73;;;22.20;60.00;;;;;;4913852;29;20209;-49
2023/10/14 11:35:21;;;;;;;1.73;1.63;;;22.10;61.20;;;;;;4914580;29;20193;-49
2023/10/14 11:37:54;;;;;;;2.73;1.93;;;22.30;61.60;;;;;;4913607;29;20585;-50
2023/10/14 11:40:25;;;;;;;1.57;1.40;;;22.40;61.20;;;;;;4918776;29;20601;-50
2023/10/14 11:42:54;;;;;;;1.33;1.20;;;22.60;60.80;;;;;;4914399;29;20422;-49
2023/10/14 11:45:20;;;;;;;2.20;1.63;;;22.60;60.60;;;;;;4907880;29;20440;-51
2023/10/14 11:47:46;;;;;;;10.60;9.83;;;22.60;60.10;;;;;;4912947;29;20473;-53
2023/10/14 11:50:12;;;;;;;9.73;9.03;;;22.80;60.00;;;;;;4913463;29;20519;-49
2023/10/14 11:52:42;;;;;;;1.90;1.70;;;22.70;60.30;;;;;;4913772;29;20357;-50
2023/10/14 11:55:14;;;;;;;1.13;1.03;;;22.60;60.50;;;;;;4915964;29;20216;-50
2023/10/14 11:57:46;;;;;;;1.20;1.10;;;22.30;61.30;;;;;;4914397;29;20509;-49
2023/10/14 12:00:20;;;;;;;2.63;1.60;;;22.10;61.20;;;;;;4913675;29;20460;-48
2023/10/14 12:02:47;;;;;;;1.20;1.10;;;21.70;62.20;;;;;;4916101;29;20964;-49
2023/10/14 12:05:13;;;;;;;1.30;1.10;;;21.50;63.70;;;;;;4914788;29;20437;-46
2023/10/14 12:07:39;;;;;;;1.83;1.00;;;21.50;63.60;;;;;;4917571;29;20461;-48
2023/10/14 12:10:06;;;;;;;1.13;1.07;;;21.10;64.00;;;;;;4921312;29;20446;-48
2023/10/14 12:12:32;;;;;;;1.33;1.13;;;21.00;65.30;;;;;;4917850;29;20437;-48
2023/10/14 12:14:58;;;;;;;1.40;1.30;;;20.80;65.80;;;;;;4908236;29;21021;-49
2023/10/14 12:17:24;;;;;;;1.30;1.20;;;20.70;65.60;;;;;;4914390;29;20484;-48
2023/10/14 12:19:50;;;;;;;2.50;1.60;;;20.80;66.20;;;;;;4907833;29;20540;-45
2023/10/14 12:22:15;;;;;;;1.50;1.30;;;20.90;66.60;;;;;;4912369;29;20182;-50
2023/10/14 12:24:41;;;;;;;1.80;1.50;;;21.10;65.30;;;;;;4909146;29;20272;-48
2023/10/14 12:27:13;;;;;;;1.33;1.20;;;21.20;64.90;;;;;;4908803;29;20187;-48
2023/10/14 12:29:40;;;;;;;2.03;1.33;;;21.30;64.10;;;;;;4914635;29;20228;-48
2023/10/14 12:32:12;;;;;;;1.73;1.40;;;21.50;63.80;;;;;;4911815;29;20972;-49
2023/10/14 12:34:39;;;;;;;1.77;1.23;;;21.70;62.70;;;;;;4917026;29;21212;-48
2023/10/14 12:37:07;;;;;;;1.63;1.00;;;21.80;61.60;;;;;;4910142;29;20436;-48
2023/10/14 12:39:43;;;;;;;1.17;1.00;;;22.00;60.80;;;;;;4913550;29;21218;-48
2023/10/14 12:42:09;;;;;;;1.10;1.00;;;22.20;60.70;;;;;;4916770;29;20463;-50
2023/10/14 12:44:35;;;;;;;1.53;1.23;;;22.20;59.50;;;;;;4912906;29;20437;-53
2023/10/14 12:47:14;;;;;;;1.77;1.03;;;22.30;59.50;;;;;;4919975;29;20695;-51
2023/10/14 12:49:40;;;;;;;1.80;1.10;;;22.30;59.70;;;;;;4918279;29;20975;-51
2023/10/14 12:52:12;;;;;;;1.80;1.70;;;22.40;59.50;;;;;;4914370;29;21181;-51
2023/10/14 12:54:41;;;;;;;1.10;1.00;;;22.50;59.20;;;;;;4915972;29;20846;-52
2023/10/14 12:57:11;;;;;;;1.13;1.03;;;22.70;59.10;;;;;;4913609;29;20447;-52
2023/10/14 12:59:42;;;;;;;2.23;1.17;;;22.70;58.70;;;;;;4919159;29;20456;-49
2023/10/14 13:02:11;;;;;;;1.20;1.03;;;22.70;58.70;;;;;;4914367;29;20463;-50
2023/10/14 13:04:41;;;;;;;1.40;1.30;;;22.70;58.40;;;;;;4914627;29;20445;-50
2023/10/14 13:07:10;;;;;;;1.93;1.60;;;22.80;58.30;;;;;;4911785;29;20843;-49
2023/10/14 13:09:38;;;;;;;2.00;1.37;;;22.80;58.40;;;;;;4908107;29;20521;-51
2023/10/14 13:12:09;;;;;;;1.40;1.30;;;22.90;58.40;;;;;;4914107;29;20444;-49
2023/10/14 13:14:37;;;;;;;1.10;1.10;;;22.70;58.40;;;;;;4914382;29;20897;-47
2023/10/14 13:17:03;;;;;;;1.70;1.03;;;22.40;58.60;;;;;;4913783;29;20977;-46
2023/10/14 13:19:38;;;;;;;1.67;1.30;;;22.20;59.00;;;;;;4912609;29;20484;-48
2023/10/14 13:22:13;;;;;;;1.27;1.00;;;22.00;59.30;;;;;;4915994;29;20453;-47
2023/10/14 13:24:40;;;;;;;1.07;1.00;;;21.70;60.60;;;;;;4915688;29;21031;-49
2023/10/14 13:27:06;;;;;;;1.30;1.20;;;21.50;60.90;;;;;;4912407;29;20982;-48
2023/10/14 13:29:32;;;;;;;1.67;1.00;;;21.50;61.50;;;;;;4915864;29;20617;-48
2023/10/14 13:31:59;;;;;;;1.20;1.10;;;21.20;61.30;;;;;;4912556;29;20532;-48